createdAt,value
2022-10-12T00:01:22.244Z,1.00
2022-10-12T00:03:52.284Z,1.10
2022-10-12T00:06:21.597Z,0.80
2022-10-12T00:08:50.596Z,0.80
2022-10-12T00:11:20.909Z,0.90
2022-10-12T00:13:49.480Z,1.10
2022-10-12T00:16:19.363Z,1.00
2022-10-12T00:18:51.324Z,0.82
2022-10-12T00:21:21.321Z,0.90
2022-10-12T00:23:50.420Z,0.82
2022-10-12T00:26:19.759Z,0.90
2022-10-12T00:28:48.689Z,1.05
2022-10-12T00:31:17.965Z,0.75
2022-10-12T00:33:46.831Z,1.08
2022-10-12T00:36:16.693Z,0.80
2022-10-12T00:38:47.014Z,0.80
2022-10-12T00:41:16.104Z,0.70
2022-10-12T00:43:45.908Z,0.80
2022-10-12T00:46:16.604Z,0.90
2022-10-12T00:48:46.544Z,0.80
2022-10-12T00:51:15.173Z,0.98
2022-10-12T00:53:45.288Z,0.82
2022-10-12T00:56:19.157Z,0.75
2022-10-12T00:58:48.169Z,0.75
2022-10-12T01:01:16.869Z,0.95
2022-10-12T01:03:45.693Z,0.80
2022-10-12T01:06:14.316Z,0.80
2022-10-12T01:08:43.548Z,0.85
2022-10-12T01:11:12.128Z,0.80
2022-10-12T01:13:42.109Z,0.90
2022-10-12T01:16:14.451Z,0.77
2022-10-12T01:18:46.627Z,0.75
2022-10-12T01:21:19.168Z,0.85
2022-10-12T01:23:57.448Z,0.75
2022-10-12T01:26:35.305Z,0.60
2022-10-12T01:29:11.576Z,0.60
2022-10-12T01:31:43.575Z,0.63
2022-10-12T01:34:15.953Z,0.60
2022-10-12T01:36:46.664Z,0.82
2022-10-12T01:39:17.841Z,0.70
2022-10-12T01:41:48.834Z,0.82
2022-10-12T01:44:21.994Z,0.68
2022-10-12T01:46:52.698Z,0.73
2022-10-12T01:49:23.686Z,0.68
2022-10-12T01:52:01.237Z,0.80
2022-10-12T01:54:36.679Z,0.80
2022-10-12T01:57:06.789Z,0.55
2022-10-12T01:59:44.796Z,0.80
2022-10-12T02:02:18.844Z,0.88
2022-10-12T02:04:50.309Z,0.80
2022-10-12T02:07:20.236Z,0.70
2022-10-12T02:09:49.307Z,1.13
2022-10-12T02:12:20.483Z,0.70
2022-10-12T02:14:50.601Z,0.85
2022-10-12T02:17:22.478Z,0.65
2022-10-12T02:19:52.612Z,0.60
2022-10-12T02:22:21.388Z,0.70
2022-10-12T02:24:51.177Z,0.80
2022-10-12T02:27:20.558Z,0.60
2022-10-12T02:29:50.059Z,0.90
2022-10-12T02:32:22.742Z,0.70
2022-10-12T02:34:55.243Z,0.80
2022-10-12T02:37:30.358Z,0.73
2022-10-12T02:40:04.401Z,0.70
2022-10-12T02:42:58.224Z,0.80
2022-10-12T02:45:24.321Z,0.80
2022-10-12T02:47:55.787Z,0.80
2022-10-12T02:50:25.358Z,0.75
2022-10-12T02:52:54.236Z,0.90
2022-10-12T02:55:22.913Z,0.77
2022-10-12T02:57:51.482Z,0.88
2022-10-12T03:00:20.379Z,0.80
2022-10-12T03:02:49.089Z,0.70
2022-10-12T03:05:19.021Z,0.75
2022-10-12T03:07:47.992Z,0.90
2022-10-12T03:10:16.756Z,0.80
2022-10-12T03:12:49.828Z,0.95
2022-10-12T03:15:18.852Z,0.68
2022-10-12T03:17:47.406Z,0.80
2022-10-12T03:20:16.009Z,0.90
2022-10-12T03:22:45.935Z,0.77
2022-10-12T03:25:14.549Z,0.70
2022-10-12T03:27:43.138Z,0.60
2022-10-12T03:30:12.516Z,0.80
2022-10-12T03:32:41.281Z,0.88
2022-10-12T03:35:10.350Z,0.70
2022-10-12T03:37:39.390Z,0.70
2022-10-12T03:40:11.130Z,0.70
2022-10-12T03:42:39.702Z,0.95
2022-10-12T03:45:09.581Z,0.80
2022-10-12T03:47:39.116Z,0.60
2022-10-12T03:50:08.332Z,0.88
2022-10-12T03:52:36.894Z,0.63
2022-10-12T03:55:05.697Z,0.80
2022-10-12T03:57:35.913Z,0.77
2022-10-12T04:00:04.820Z,0.70
2022-10-12T04:02:39.996Z,0.85
2022-10-12T04:05:08.973Z,1.00
2022-10-12T04:07:37.846Z,0.68
2022-10-12T04:10:07.158Z,0.70
2022-10-12T04:12:37.068Z,0.73
2022-10-12T04:15:05.756Z,1.02
2022-10-12T04:17:34.377Z,0.73
2022-10-12T04:20:02.975Z,1.05
2022-10-12T04:22:31.541Z,1.20
2022-10-12T04:25:00.123Z,1.45
2022-10-12T04:27:28.709Z,1.00
2022-10-12T04:29:58.644Z,0.95
2022-10-12T04:32:27.184Z,1.20
2022-10-12T04:34:55.785Z,1.08
2022-10-12T04:37:24.372Z,1.20
2022-10-12T04:39:53.233Z,1.17
2022-10-12T04:42:21.879Z,1.35
2022-10-12T04:44:50.447Z,0.95
2022-10-12T04:47:20.366Z,1.65
2022-10-12T04:49:48.919Z,1.60
2022-10-12T04:52:17.471Z,1.45
2022-10-12T04:54:46.039Z,1.40
2022-10-12T04:57:14.616Z,1.48
2022-10-12T04:59:43.141Z,1.15
2022-10-12T05:02:11.801Z,1.30
2022-10-12T05:04:41.753Z,1.67
2022-10-12T05:07:10.859Z,1.70
2022-10-12T05:09:39.385Z,1.38
2022-10-12T05:12:08.157Z,1.60
2022-10-12T05:14:36.801Z,1.50
2022-10-12T05:17:05.437Z,1.75
2022-10-12T05:19:34.003Z,2.10
2022-10-12T05:22:04.226Z,1.98
2022-10-12T05:24:33.008Z,1.52
2022-10-12T05:27:02.672Z,1.45
2022-10-12T05:29:31.245Z,1.58
2022-10-12T05:31:59.797Z,1.58
2022-10-12T05:34:28.389Z,1.55
2022-10-12T05:36:58.280Z,1.75
2022-10-12T05:39:28.288Z,1.60
2022-10-12T05:41:56.849Z,1.52
2022-10-12T05:44:25.558Z,1.50
2022-10-12T05:46:54.732Z,1.88
2022-10-12T05:49:24.027Z,1.67
2022-10-12T05:51:53.192Z,1.73
2022-10-12T05:54:22.308Z,1.60
2022-10-12T05:56:52.381Z,1.63
2022-10-12T05:59:21.116Z,1.77
2022-10-12T06:01:50.152Z,2.05
2022-10-12T06:04:18.752Z,1.80
2022-10-12T06:06:47.357Z,1.63
2022-10-12T06:09:16.162Z,2.33
2022-10-12T06:11:44.737Z,1.60
2022-10-12T06:14:14.907Z,1.70
2022-10-12T06:16:43.610Z,2.22
2022-10-12T06:19:12.688Z,2.63
2022-10-12T06:21:41.325Z,3.08
2022-10-12T06:24:10.018Z,3.20
2022-10-12T06:26:38.701Z,2.25
2022-10-12T06:29:07.573Z,1.98
2022-10-12T06:31:38.409Z,1.98
2022-10-12T06:34:07.082Z,2.30
2022-10-12T06:36:35.684Z,2.30
2022-10-12T06:39:04.297Z,2.25
2022-10-12T06:41:32.858Z,2.60
2022-10-12T06:44:01.393Z,2.13
2022-10-12T06:46:30.014Z,2.42
2022-10-12T06:48:59.954Z,2.35
2022-10-12T06:51:28.505Z,2.15
2022-10-12T06:53:57.121Z,2.75
2022-10-12T06:56:25.801Z,2.10
2022-10-12T06:58:57.577Z,2.80
2022-10-12T07:01:26.208Z,2.65
2022-10-12T07:03:59.727Z,2.78
2022-10-12T07:06:30.598Z,3.05
2022-10-12T07:08:59.166Z,2.90
2022-10-12T07:11:27.760Z,2.13
2022-10-12T07:13:56.331Z,2.28
2022-10-12T07:16:24.897Z,2.17
2022-10-12T07:18:53.566Z,2.58
2022-10-12T07:21:22.140Z,2.42
2022-10-12T07:23:52.139Z,2.75
2022-10-12T07:26:20.837Z,2.38
2022-10-12T07:28:49.449Z,2.47
2022-10-12T07:31:18.062Z,2.65
2022-10-12T07:33:46.666Z,2.65
2022-10-12T07:36:20.903Z,2.30
2022-10-12T07:38:52.165Z,2.38
2022-10-12T07:41:21.069Z,2.60
2022-10-12T07:43:49.648Z,2.45
2022-10-12T07:46:18.209Z,2.13
2022-10-12T07:48:50.321Z,2.47
2022-10-12T07:51:19.374Z,2.90
2022-10-12T07:53:47.948Z,2.92
2022-10-12T07:56:18.384Z,2.03
2022-10-12T07:58:49.991Z,2.45
2022-10-12T08:01:19.584Z,1.73
2022-10-12T08:03:48.164Z,1.75
2022-10-12T08:06:17.548Z,1.80
2022-10-12T08:08:46.564Z,1.88
2022-10-12T08:11:15.334Z,1.63
2022-10-12T08:13:45.739Z,1.90
2022-10-12T08:16:15.277Z,1.80
2022-10-12T08:18:44.458Z,1.63
2022-10-12T08:21:13.890Z,1.90
2022-10-12T08:23:44.489Z,1.92
2022-10-12T08:26:13.495Z,2.03
2022-10-12T08:28:42.151Z,1.38
2022-10-12T08:31:13.749Z,2.08
2022-10-12T08:33:42.725Z,1.52
2022-10-12T08:36:12.892Z,1.73
2022-10-12T08:38:43.483Z,1.38
2022-10-12T08:41:21.537Z,1.50
2022-10-12T08:43:54.471Z,1.70
2022-10-12T08:46:25.289Z,2.10
2022-10-12T08:48:56.589Z,1.50
2022-10-12T08:51:26.089Z,1.52
2022-10-12T08:53:58.244Z,1.40
2022-10-12T08:56:27.052Z,1.38
2022-10-12T08:58:56.180Z,1.27
2022-10-12T09:01:29.285Z,1.25
2022-10-12T09:04:10.400Z,1.40
2022-10-12T09:06:41.428Z,1.75
2022-10-12T09:09:20.537Z,1.10
2022-10-12T09:11:59.685Z,1.15
2022-10-12T09:14:30.256Z,1.02
2022-10-12T09:17:02.270Z,1.10
2022-10-12T09:19:34.784Z,1.13
2022-10-12T09:22:04.955Z,1.45
2022-10-12T09:24:37.180Z,1.15
2022-10-12T09:27:13.739Z,1.23
2022-10-12T09:29:47.080Z,1.00
2022-10-12T09:32:23.445Z,1.63
2022-10-12T09:34:52.086Z,0.95
2022-10-12T09:37:22.559Z,0.90
2022-10-12T09:39:51.641Z,0.68
2022-10-12T09:42:20.232Z,1.02
2022-10-12T09:44:49.978Z,0.85
2022-10-12T09:47:28.110Z,0.95
2022-10-12T09:49:58.911Z,0.88
2022-10-12T09:52:30.137Z,1.08
2022-10-12T09:55:02.456Z,1.10
2022-10-12T09:57:35.099Z,1.00
2022-10-12T10:00:06.439Z,1.20
2022-10-12T10:02:49.728Z,1.20
2022-10-12T10:05:25.065Z,1.10
2022-10-12T10:07:53.799Z,0.90
2022-10-12T10:10:29.457Z,0.93
2022-10-12T10:13:01.322Z,0.80
2022-10-12T10:15:31.233Z,0.82
2022-10-12T10:18:02.105Z,1.02
2022-10-12T10:20:32.271Z,0.75
2022-10-12T10:23:01.316Z,0.70
2022-10-12T10:25:30.054Z,0.80
2022-10-12T10:28:12.605Z,0.80
2022-10-12T10:30:41.736Z,0.70
2022-10-12T10:33:16.787Z,0.73
2022-10-12T10:35:56.385Z,0.70
2022-10-12T10:38:24.963Z,0.57
2022-10-12T10:40:53.792Z,0.70
2022-10-12T10:43:23.865Z,0.75
2022-10-12T10:45:53.444Z,0.65
2022-10-12T10:48:25.016Z,0.70
2022-10-12T10:50:56.504Z,0.90
2022-10-12T10:53:26.305Z,0.90
2022-10-12T10:55:57.958Z,0.82
2022-10-12T10:58:30.008Z,0.77
2022-10-12T11:01:00.092Z,0.70
2022-10-12T11:03:31.473Z,0.70
2022-10-12T11:06:01.468Z,0.60
2022-10-12T11:08:31.738Z,0.63
2022-10-12T11:11:02.597Z,1.00
2022-10-12T11:13:33.829Z,0.93
2022-10-12T11:16:05.561Z,0.70
2022-10-12T11:18:36.709Z,0.68
2022-10-12T11:21:09.236Z,0.73
2022-10-12T11:23:42.521Z,0.60
2022-10-12T11:26:15.818Z,0.60
2022-10-12T11:28:44.835Z,0.88
2022-10-12T11:31:18.728Z,0.70
2022-10-12T11:33:49.733Z,0.70
2022-10-12T11:36:21.987Z,0.60
2022-10-12T11:38:55.505Z,0.60
2022-10-12T11:41:36.552Z,0.55
2022-10-12T11:44:06.877Z,0.50
2022-10-12T11:46:37.610Z,0.50
2022-10-12T11:49:11.966Z,0.70
2022-10-12T11:51:40.521Z,0.60
2022-10-12T11:54:15.877Z,0.50
2022-10-12T11:56:46.613Z,0.57
2022-10-12T11:59:17.629Z,0.60
2022-10-12T12:01:49.077Z,0.70
2022-10-12T12:04:41.695Z,0.60
2022-10-12T12:07:29.559Z,0.75
2022-10-12T12:09:58.243Z,0.50
2022-10-12T12:12:28.186Z,0.63
2022-10-12T12:15:05.494Z,0.55
2022-10-12T12:17:34.626Z,0.70
2022-10-12T12:20:05.279Z,0.85
2022-10-12T12:22:35.142Z,0.70
2022-10-12T12:25:07.087Z,0.77
2022-10-12T12:27:37.854Z,0.70
2022-10-12T12:30:07.949Z,0.68
2022-10-12T12:32:45.091Z,0.98
2022-10-12T12:35:22.525Z,0.80
2022-10-12T12:37:51.409Z,0.50
2022-10-12T12:40:23.230Z,0.60
2022-10-12T12:42:52.014Z,0.60
2022-10-12T12:45:38.214Z,0.55
2022-10-12T12:48:09.432Z,0.50
2022-10-12T12:50:40.170Z,0.50
2022-10-12T12:53:10.415Z,0.68
2022-10-12T12:55:48.449Z,0.50
2022-10-12T12:58:32.551Z,0.77
2022-10-12T13:01:08.493Z,0.57
2022-10-12T13:03:50.686Z,0.80
2022-10-12T13:06:38.117Z,0.70
2022-10-12T13:09:17.016Z,0.70
2022-10-12T13:11:51.577Z,0.57
2022-10-12T13:14:25.108Z,0.77
2022-10-12T13:19:50.922Z,0.47
2022-10-12T13:22:23.372Z,0.50
2022-10-12T13:24:55.877Z,0.68
2022-10-12T13:27:26.497Z,0.55
2022-10-12T13:29:58.696Z,0.70
2022-10-12T13:32:34.474Z,0.60
2022-10-12T13:35:06.617Z,0.80
2022-10-12T13:37:36.673Z,0.70
2022-10-12T13:40:07.074Z,0.70
2022-10-12T13:42:36.781Z,0.57
2022-10-12T13:45:07.933Z,0.60
2022-10-12T13:47:43.761Z,0.70
2022-10-12T13:50:18.698Z,0.90
2022-10-12T13:52:54.046Z,0.80
2022-10-12T13:55:29.208Z,0.65
2022-10-12T13:57:58.170Z,0.60
2022-10-12T14:00:27.429Z,0.70
2022-10-12T14:02:57.101Z,0.60
2022-10-12T14:05:27.023Z,0.70
2022-10-12T14:07:58.083Z,0.80
2022-10-12T14:10:29.979Z,0.82
2022-10-12T14:12:58.792Z,1.15
2022-10-12T14:15:29.401Z,0.85
2022-10-12T14:17:58.160Z,0.70
2022-10-12T14:20:30.544Z,0.68
2022-10-12T14:23:00.384Z,0.70
2022-10-12T14:25:31.502Z,0.40
2022-10-12T14:28:01.217Z,0.65
2022-10-12T14:30:31.290Z,0.70
2022-10-12T14:33:11.131Z,0.65
2022-10-12T14:35:42.229Z,0.63
2022-10-12T14:38:25.749Z,0.68
2022-10-12T14:40:55.681Z,0.60
2022-10-12T14:43:24.624Z,0.77
2022-10-12T14:45:53.497Z,1.10
2022-10-12T14:48:23.750Z,0.68
2022-10-12T14:50:52.490Z,0.82
2022-10-12T14:53:22.480Z,1.13
2022-10-12T14:55:53.866Z,2.13
2022-10-12T14:58:25.795Z,0.77
2022-10-12T15:00:54.407Z,0.60
2022-10-12T15:03:23.305Z,0.80
2022-10-12T15:05:51.880Z,0.55
2022-10-12T15:08:20.423Z,1.27
2022-10-12T15:10:51.706Z,1.10
2022-10-12T15:13:20.244Z,0.93
2022-10-12T15:15:50.514Z,1.40
2022-10-12T15:18:19.149Z,1.20
2022-10-12T15:20:49.727Z,0.70
2022-10-12T15:23:18.933Z,1.52
2022-10-12T15:25:49.749Z,0.93
2022-10-12T15:28:18.401Z,0.85
2022-10-12T15:31:12.135Z,0.73
2022-10-12T15:33:36.964Z,0.60
2022-10-12T15:36:05.746Z,0.75
2022-10-12T15:38:34.369Z,0.93
2022-10-12T15:41:02.996Z,1.02
2022-10-12T15:43:33.667Z,1.10
2022-10-12T15:46:04.316Z,1.33
2022-10-12T15:48:32.889Z,1.52
2022-10-12T15:51:03.073Z,1.27
2022-10-12T15:53:31.862Z,1.15
2022-10-12T15:56:00.457Z,2.53
2022-10-12T15:58:29.011Z,1.10
2022-10-12T16:00:57.757Z,1.50
2022-10-12T16:03:31.210Z,1.73
2022-10-12T16:06:00.042Z,1.40
2022-10-12T16:08:30.028Z,1.70
2022-10-12T16:10:58.978Z,1.40
2022-10-12T16:13:27.617Z,1.27
2022-10-12T16:15:56.284Z,1.13
2022-10-12T16:18:25.115Z,1.40
2022-10-12T16:20:54.204Z,2.88
2022-10-12T16:23:24.160Z,0.88
2022-10-12T16:25:54.524Z,0.90
2022-10-12T16:28:23.804Z,1.02
2022-10-12T16:30:52.982Z,0.90
2022-10-12T16:33:21.567Z,1.00
2022-10-12T16:35:50.132Z,1.05
2022-10-12T16:38:20.042Z,1.20
2022-10-12T16:40:49.982Z,1.00
2022-10-12T16:43:20.515Z,1.55
2022-10-12T16:45:56.763Z,1.20
2022-10-12T16:48:25.558Z,1.30
2022-10-12T16:50:54.290Z,1.48
2022-10-12T16:53:22.902Z,1.40
2022-10-12T16:55:51.511Z,1.00
2022-10-12T16:58:21.674Z,1.52
2022-10-12T17:00:50.596Z,1.20
2022-10-12T17:03:19.256Z,1.70
2022-10-12T17:05:47.836Z,1.65
2022-10-12T17:08:16.400Z,1.88
2022-10-12T17:10:45.704Z,1.58
2022-10-12T17:13:15.245Z,1.60
2022-10-12T17:15:45.217Z,2.15
2022-10-12T17:18:13.785Z,1.80
2022-10-12T17:20:42.343Z,1.77
2022-10-12T17:23:11.059Z,1.90
2022-10-12T17:25:39.665Z,1.63
2022-10-12T17:28:08.286Z,2.08
2022-10-12T17:30:38.945Z,2.17
2022-10-12T17:33:08.924Z,2.22
2022-10-12T17:35:42.149Z,2.15
2022-10-12T17:38:10.996Z,2.00
2022-10-12T17:40:40.672Z,2.22
2022-10-12T17:43:09.220Z,2.45
2022-10-12T17:45:41.151Z,2.72
2022-10-12T17:48:12.765Z,2.42
2022-10-12T17:50:41.413Z,2.45
2022-10-12T17:53:10.122Z,2.40
2022-10-12T17:55:50.425Z,2.40
2022-10-12T17:58:18.985Z,2.45
2022-10-12T18:00:48.461Z,2.20
2022-10-12T18:03:22.195Z,2.20
2022-10-12T18:05:53.784Z,2.25
2022-10-12T18:08:22.336Z,2.38
2022-10-12T18:10:50.924Z,1.85
2022-10-12T18:13:19.558Z,1.85
2022-10-12T18:15:48.130Z,1.83
2022-10-12T18:18:18.078Z,1.73
2022-10-12T18:20:46.655Z,2.22
2022-10-12T18:23:15.369Z,1.95
2022-10-12T18:25:46.429Z,2.90
2022-10-12T18:28:15.868Z,2.22
2022-10-12T18:30:50.104Z,1.83
2022-10-12T18:33:20.070Z,1.60
2022-10-12T18:35:48.786Z,1.98
2022-10-12T18:38:17.556Z,1.83
2022-10-12T18:40:47.642Z,1.83
2022-10-12T18:43:16.379Z,1.83
2022-10-12T18:45:45.139Z,2.00
2022-10-12T18:48:13.934Z,1.60
2022-10-12T18:50:43.886Z,1.65
2022-10-12T18:53:13.060Z,2.53
2022-10-12T18:55:41.785Z,1.80
2022-10-12T18:58:10.394Z,1.77
2022-10-12T19:00:39.242Z,1.77
2022-10-12T19:03:07.857Z,1.55
2022-10-12T19:05:36.458Z,1.80
2022-10-12T19:08:06.426Z,1.50
2022-10-12T19:10:35.050Z,1.75
2022-10-12T19:13:03.599Z,2.15
2022-10-12T19:15:32.261Z,2.10
2022-10-12T19:18:00.848Z,2.08
2022-10-12T19:20:29.729Z,2.20
2022-10-12T19:22:58.339Z,2.42
2022-10-12T19:25:28.403Z,2.53
2022-10-12T19:27:56.948Z,2.65
2022-10-12T19:30:25.573Z,2.50
2022-10-12T19:32:54.151Z,2.40
2022-10-12T19:35:24.696Z,2.38
2022-10-12T19:37:54.017Z,2.33
2022-10-12T19:40:22.636Z,2.47
2022-10-12T19:42:52.639Z,2.20
2022-10-12T19:45:21.210Z,1.80
2022-10-12T19:47:49.842Z,2.60
2022-10-12T19:50:18.469Z,1.83
2022-10-12T19:52:47.413Z,1.70
2022-10-12T19:55:17.388Z,1.90
2022-10-12T19:57:48.684Z,1.73
2022-10-12T20:00:19.056Z,1.83
2022-10-12T20:02:47.633Z,1.75
2022-10-12T20:05:16.205Z,1.80
2022-10-12T20:07:44.801Z,1.98
2022-10-12T20:10:13.569Z,1.73
2022-10-12T20:12:42.141Z,1.85
2022-10-12T20:15:11.533Z,2.05
2022-10-12T20:17:41.504Z,1.80
2022-10-12T20:20:10.529Z,1.83
2022-10-12T20:22:39.089Z,1.88
2022-10-12T20:25:09.767Z,1.90
2022-10-12T20:27:39.088Z,1.50
2022-10-12T20:30:08.476Z,1.90
2022-10-12T20:32:37.101Z,1.73
2022-10-12T20:35:07.701Z,1.92
2022-10-12T20:37:36.381Z,1.98
2022-10-12T20:40:05.137Z,1.90
2022-10-12T20:42:34.020Z,1.80
2022-10-12T20:45:02.574Z,1.50
2022-10-12T20:47:31.192Z,2.20
2022-10-12T20:50:00.031Z,2.13
2022-10-12T20:52:30.000Z,3.10
2022-10-12T20:54:58.561Z,1.90
2022-10-12T20:57:27.112Z,2.47
2022-10-12T20:59:55.710Z,1.73
2022-10-12T21:02:24.340Z,2.00
2022-10-12T21:04:52.928Z,2.28
2022-10-12T21:07:21.638Z,1.80
2022-10-12T21:09:52.665Z,1.90
2022-10-12T21:12:21.631Z,1.90
2022-10-12T21:14:50.280Z,1.83
2022-10-12T21:17:18.995Z,1.50
2022-10-12T21:19:47.746Z,1.73
2022-10-12T21:22:16.668Z,1.73
2022-10-12T21:24:45.453Z,1.50
2022-10-12T21:27:15.377Z,1.58
2022-10-12T21:29:43.932Z,1.60
2022-10-12T21:32:12.497Z,1.40
2022-10-12T21:34:41.167Z,1.63
2022-10-12T21:37:09.741Z,1.70
2022-10-12T21:39:38.316Z,1.38
2022-10-12T21:42:06.876Z,1.40
2022-10-12T21:44:36.817Z,1.85
2022-10-12T21:47:05.562Z,1.90
2022-10-12T21:49:34.105Z,1.17
2022-10-12T21:52:02.780Z,1.55
2022-10-12T21:54:31.401Z,1.65
2022-10-12T21:57:00.012Z,1.70
2022-10-12T21:59:29.667Z,1.73
2022-10-12T22:01:59.608Z,1.63
2022-10-12T22:04:28.404Z,1.58
2022-10-12T22:07:00.421Z,1.73
2022-10-12T22:09:29.353Z,2.08
2022-10-12T22:11:57.881Z,1.70
2022-10-12T22:14:26.407Z,1.80
2022-10-12T22:16:55.061Z,1.75
2022-10-12T22:19:24.974Z,1.52
2022-10-12T22:21:53.971Z,1.63
2022-10-12T22:24:26.450Z,1.63
2022-10-12T22:26:54.979Z,1.27
2022-10-12T22:29:23.606Z,1.52
2022-10-12T22:31:52.128Z,1.23
2022-10-12T22:34:20.682Z,1.30
2022-10-12T22:36:50.592Z,1.20
2022-10-12T22:39:25.936Z,1.60
2022-10-12T22:41:54.507Z,1.30
2022-10-12T22:44:23.195Z,1.17
2022-10-12T22:46:55.782Z,1.17
2022-10-12T22:49:24.304Z,1.10
2022-10-12T22:51:54.189Z,1.13
2022-10-12T22:54:22.709Z,1.35
2022-10-12T22:56:51.728Z,1.20
2022-10-12T22:59:20.281Z,1.60
2022-10-12T23:01:48.795Z,1.20
2022-10-12T23:04:17.502Z,1.50
2022-10-12T23:06:46.112Z,1.25
2022-10-12T23:09:16.014Z,1.45
2022-10-12T23:11:44.594Z,1.40
2022-10-12T23:14:13.366Z,0.98
2022-10-12T23:16:41.920Z,1.50
2022-10-12T23:19:11.499Z,1.52
2022-10-12T23:21:40.058Z,1.27
2022-10-12T23:24:08.716Z,1.48
2022-10-12T23:26:38.617Z,1.23
2022-10-12T23:29:07.211Z,1.05
2022-10-12T23:31:36.446Z,1.30
2022-10-12T23:34:06.707Z,1.20
2022-10-12T23:36:35.611Z,1.45
2022-10-12T23:39:04.817Z,1.20
2022-10-12T23:41:33.600Z,1.60
2022-10-12T23:44:03.543Z,1.58
2022-10-12T23:46:32.132Z,1.00
2022-10-12T23:49:00.710Z,1.40
2022-10-12T23:51:29.405Z,1.40
2022-10-12T23:53:58.074Z,1.50
2022-10-12T23:56:26.622Z,1.30
2022-10-12T23:58:55.346Z,1.30
